Time;durP1;ratioP1;P1;durP2;ratioP2;P2;SDS_P1;SDS_P2;PMS_P1;PMS_P2;Temp;Humidity;BMP_temperature;BMP_pressure;BME280_temperature;BME280_humidity;BME280_pressure;Samples;Min_cycle;Max_cycle;Signal;HPM_P1;HPM_P2
2022/07/02 00:02:23;;;;;;;8.37;7.30;;;16.90;99.90;;;;;;5097269;28;20510;-46
2022/07/02 00:04:58;;;;;;;8.00;7.10;;;16.90;99.90;;;;;;5092787;28;20534;-53
2022/07/02 00:07:26;;;;;;;10.17;7.63;;;17.00;99.90;;;;;;5096519;28;20439;-54
2022/07/02 00:09:54;;;;;;;8.20;6.90;;;16.90;99.90;;;;;;5097735;28;20514;-43
2022/07/02 00:12:21;;;;;;;8.67;6.80;;;16.90;99.90;;;;;;5097846;28;20477;-46
2022/07/02 00:14:52;;;;;;;11.10;8.50;;;16.90;99.90;;;;;;5097580;28;20518;-47
2022/07/02 00:17:20;;;;;;;9.33;7.63;;;16.80;99.90;;;;;;5094811;28;20528;-55
2022/07/02 00:19:47;;;;;;;8.20;7.07;;;16.80;99.90;;;;;;5090930;28;20425;-50
2022/07/02 00:22:15;;;;;;;8.10;7.17;;;16.80;99.90;;;;;;5096109;28;20491;-45
2022/07/02 00:24:43;;;;;;;10.07;8.00;;;16.90;99.90;;;;;;5097420;28;20538;-48
2022/07/02 00:27:11;;;;;;;10.50;8.20;;;16.80;99.90;;;;;;5097600;28;20438;-42
2022/07/02 00:29:42;;;;;;;11.43;7.70;;;16.80;99.90;;;;;;5097135;28;20481;-48
2022/07/02 00:32:09;;;;;;;8.23;7.30;;;16.80;99.90;;;;;;5096338;28;20466;-50
2022/07/02 00:34:40;;;;;;;8.07;7.27;;;16.80;99.90;;;;;;5096902;28;20490;-50
2022/07/02 00:37:08;;;;;;;8.70;7.43;;;16.80;99.90;;;;;;5096516;28;20406;-53
2022/07/02 00:39:39;;;;;;;9.70;7.80;;;16.80;99.90;;;;;;5097194;28;20457;-45
2022/07/02 00:42:07;;;;;;;8.93;7.20;;;16.80;99.90;;;;;;5097071;28;20491;-47
2022/07/02 00:44:35;;;;;;;10.10;7.80;;;16.80;99.90;;;;;;5097213;28;20523;-47
2022/07/02 00:47:05;;;;;;;8.83;7.93;;;16.80;99.90;;;;;;5097107;28;20442;-48
2022/07/02 00:49:33;;;;;;;9.70;7.90;;;16.70;99.90;;;;;;5094844;28;20450;-50
2022/07/02 00:52:02;;;;;;;9.90;8.83;;;16.70;99.90;;;;;;5096215;28;20445;-54
2022/07/02 00:54:29;;;;;;;10.33;8.07;;;16.70;99.90;;;;;;5096122;28;20438;-51
2022/07/02 00:56:56;;;;;;;10.67;6.37;;;16.70;99.90;;;;;;5095408;28;20465;-49
2022/07/02 00:59:24;;;;;;;9.00;7.60;;;16.60;99.90;;;;;;5095833;28;20427;-50
2022/07/02 01:01:51;;;;;;;8.50;7.40;;;16.60;99.90;;;;;;5094423;28;20442;-48
2022/07/02 01:04:19;;;;;;;9.73;8.17;;;16.60;99.90;;;;;;5095798;28;20462;-50
2022/07/02 01:06:46;;;;;;;11.03;7.47;;;16.60;99.90;;;;;;5096338;28;20450;-49
2022/07/02 01:12:04;;;;;;;8.03;7.13;;;16.60;99.90;;;;;;5096084;28;20552;-49
2022/07/02 01:14:31;;;;;;;8.90;7.40;;;16.60;99.90;;;;;;5095716;28;20505;-54
2022/07/02 01:16:59;;;;;;;8.27;6.50;;;16.60;99.90;;;;;;5096390;28;20540;-45
2022/07/02 01:19:29;;;;;;;10.87;8.33;;;16.50;99.90;;;;;;5095139;28;20449;-49
2022/07/02 01:22:14;;;;;;;10.63;6.53;;;16.50;99.90;;;;;;5095726;28;20434;-50
2022/07/02 01:24:41;;;;;;;9.17;7.93;;;16.50;99.90;;;;;;5093682;28;20522;-54
2022/07/02 01:27:08;;;;;;;10.77;7.73;;;16.60;99.90;;;;;;5094871;28;20455;-53
2022/07/02 01:29:35;;;;;;;9.47;7.60;;;16.50;99.90;;;;;;5095103;28;20486;-45
2022/07/02 01:32:02;;;;;;;8.90;7.13;;;16.50;99.90;;;;;;5096183;28;20462;-52
2022/07/02 01:34:29;;;;;;;8.67;7.77;;;16.50;99.90;;;;;;5094193;28;20453;-54
2022/07/02 01:36:56;;;;;;;8.70;7.23;;;16.50;99.90;;;;;;5095389;28;20451;-46
2022/07/02 01:39:27;;;;;;;8.10;7.30;;;16.50;99.90;;;;;;5094248;28;20492;-47
2022/07/02 01:41:54;;;;;;;9.63;8.33;;;16.50;99.90;;;;;;5093894;28;20442;-50
2022/07/02 01:44:21;;;;;;;10.53;7.87;;;16.50;99.90;;;;;;5095008;28;20446;-48
2022/07/02 01:46:48;;;;;;;7.90;6.83;;;16.40;99.90;;;;;;5095330;28;20439;-42
2022/07/02 01:49:15;;;;;;;10.03;8.27;;;16.40;99.90;;;;;;5094909;28;20541;-48
2022/07/02 01:51:42;;;;;;;7.53;6.60;;;16.40;99.90;;;;;;5095618;28;20454;-46
2022/07/02 01:54:09;;;;;;;9.57;7.93;;;16.40;99.90;;;;;;5096428;28;20440;-49
2022/07/02 01:56:37;;;;;;;8.03;7.27;;;16.40;99.90;;;;;;5095147;28;20519;-47
2022/07/02 01:59:05;;;;;;;11.10;8.00;;;16.40;99.90;;;;;;5093552;28;20453;-50
2022/07/02 02:01:33;;;;;;;9.60;8.10;;;16.50;99.90;;;;;;5094633;28;20534;-47
2022/07/02 02:04:00;;;;;;;11.47;8.50;;;16.50;99.90;;;;;;5112173;22;20534;-52
2022/07/02 02:06:27;;;;;;;11.13;9.00;;;16.40;99.90;;;;;;5054768;28;20519;-51
2022/07/02 02:08:54;;;;;;;8.90;7.10;;;16.40;99.90;;;;;;5055972;28;21002;-47
2022/07/02 02:11:21;;;;;;;10.70;8.20;;;16.30;99.90;;;;;;5046866;28;20428;-51
2022/07/02 02:13:49;;;;;;;9.17;7.77;;;16.30;99.90;;;;;;5054608;28;20536;-50
2022/07/02 02:16:16;;;;;;;10.67;8.60;;;16.30;99.90;;;;;;5055376;28;20500;-49
2022/07/02 02:18:43;;;;;;;10.93;8.27;;;16.20;99.90;;;;;;5054201;28;20444;-52
2022/07/02 02:21:10;;;;;;;11.17;8.70;;;16.20;99.90;;;;;;5054243;28;20432;-50
2022/07/02 02:23:37;;;;;;;9.90;8.80;;;16.20;99.90;;;;;;5055338;28;20484;-49
2022/07/02 02:26:03;;;;;;;8.93;7.53;;;16.20;99.90;;;;;;5052897;28;20491;-46
2022/07/02 02:28:30;;;;;;;9.70;7.93;;;16.20;99.90;;;;;;5055124;28;20443;-42
2022/07/02 02:31:00;;;;;;;11.87;9.27;;;16.10;99.90;;;;;;5055194;28;20474;-49
2022/07/02 02:33:26;;;;;;;10.90;8.00;;;16.00;99.90;;;;;;5055443;28;20490;-39
2022/07/02 02:35:53;;;;;;;11.60;9.60;;;16.10;99.90;;;;;;5055384;28;20432;-45
2022/07/02 02:38:22;;;;;;;9.57;8.27;;;16.10;99.90;;;;;;5055168;28;20547;-46
2022/07/02 02:40:50;;;;;;;10.27;9.17;;;16.00;99.90;;;;;;5054651;28;20420;-52
2022/07/02 02:43:17;;;;;;;9.70;8.63;;;16.00;99.90;;;;;;5055330;28;20432;-50
2022/07/02 02:45:44;;;;;;;16.50;10.27;;;16.00;99.90;;;;;;5056278;28;20523;-47
2022/07/02 02:48:19;;;;;;;12.47;10.00;;;16.00;99.90;;;;;;5055471;28;20471;-44
2022/07/02 02:50:46;;;;;;;13.10;10.20;;;16.00;99.90;;;;;;5054017;28;20491;-50
2022/07/02 02:53:13;;;;;;;12.33;8.83;;;16.00;99.90;;;;;;5054818;28;20424;-57
2022/07/02 02:55:39;;;;;;;12.00;9.23;;;15.90;99.90;;;;;;5054762;28;20492;-50
2022/07/02 02:58:06;;;;;;;10.33;8.40;;;16.00;99.90;;;;;;5054920;28;20566;-57
2022/07/02 03:00:33;;;;;;;10.70;8.73;;;16.00;99.90;;;;;;5054428;28;20436;-52
2022/07/02 03:03:00;;;;;;;11.20;9.50;;;16.00;99.90;;;;;;5055952;28;20472;-49
2022/07/02 03:05:28;;;;;;;11.67;10.13;;;16.00;99.90;;;;;;5055909;28;20465;-46
2022/07/02 03:07:55;;;;;;;10.67;9.10;;;16.00;99.90;;;;;;5056102;28;20444;-48
2022/07/02 03:10:22;;;;;;;10.87;8.20;;;15.90;99.90;;;;;;5055466;28;20562;-59
2022/07/02 03:12:48;;;;;;;10.93;8.93;;;15.90;99.90;;;;;;5049856;28;20526;-48
2022/07/02 03:15:15;;;;;;;13.13;9.97;;;15.90;99.90;;;;;;5054376;28;20500;-48
2022/07/02 03:17:42;;;;;;;10.43;7.97;;;15.90;99.90;;;;;;5054642;28;20470;-41
2022/07/02 03:20:10;;;;;;;11.77;8.77;;;15.90;99.90;;;;;;5048042;28;20467;-44
2022/07/02 03:22:38;;;;;;;13.17;8.23;;;15.90;99.90;;;;;;5054139;28;20499;-41
2022/07/02 03:25:07;;;;;;;17.10;10.53;;;15.90;99.90;;;;;;5054379;28;20479;-44
2022/07/02 03:27:34;;;;;;;12.63;9.70;;;15.90;99.90;;;;;;5054444;28;20468;-47
2022/07/02 03:30:01;;;;;;;14.27;9.70;;;15.90;99.90;;;;;;5053828;28;20478;-48
2022/07/02 03:32:29;;;;;;;13.33;9.97;;;15.90;99.90;;;;;;5053315;28;20538;-45
2022/07/02 03:34:56;;;;;;;13.30;9.53;;;15.90;99.90;;;;;;5053457;28;20506;-47
2022/07/02 03:37:27;;;;;;;11.07;8.80;;;15.90;99.90;;;;;;5054692;28;20459;-51
2022/07/02 03:39:56;;;;;;;12.83;9.53;;;15.90;99.90;;;;;;5054824;28;20515;-45
2022/07/02 03:42:23;;;;;;;13.57;10.90;;;15.90;99.90;;;;;;5055133;28;20463;-54
2022/07/02 03:44:50;;;;;;;10.80;9.00;;;15.90;99.90;;;;;;5053298;28;20471;-49
2022/07/02 03:47:17;;;;;;;15.43;9.43;;;15.90;99.90;;;;;;5053607;28;20490;-51
2022/07/02 03:49:44;;;;;;;10.67;9.33;;;15.90;99.90;;;;;;5052490;28;20490;-47
2022/07/02 03:52:11;;;;;;;11.53;9.83;;;15.90;99.90;;;;;;5053849;28;20440;-43
2022/07/02 03:54:38;;;;;;;14.73;9.47;;;15.90;99.90;;;;;;5052690;28;20444;-49
2022/07/02 03:57:06;;;;;;;16.50;9.50;;;15.90;99.90;;;;;;5055071;28;20451;-51
2022/07/02 03:59:33;;;;;;;10.73;8.43;;;15.90;99.90;;;;;;5057870;28;20532;-46
2022/07/02 04:02:00;;;;;;;12.37;9.87;;;15.90;99.90;;;;;;5057953;28;20883;-47
2022/07/02 04:04:27;;;;;;;11.40;9.30;;;16.00;99.90;;;;;;5057349;28;20500;-48
2022/07/02 04:06:54;;;;;;;12.40;10.37;;;15.90;99.90;;;;;;5055599;28;20484;-53
2022/07/02 04:09:24;;;;;;;11.90;9.37;;;15.90;99.90;;;;;;5056483;28;20435;-41
2022/07/02 04:11:51;;;;;;;13.60;10.20;;;15.90;99.90;;;;;;5057370;28;20486;-43
2022/07/02 04:14:19;;;;;;;14.37;9.77;;;15.90;99.90;;;;;;5055972;28;20434;-49
2022/07/02 04:16:46;;;;;;;15.20;9.80;;;16.00;99.90;;;;;;5056734;28;20492;-46
2022/07/02 04:19:13;;;;;;;11.90;9.43;;;16.00;99.90;;;;;;5055452;28;20512;-47
2022/07/02 04:21:39;;;;;;;11.93;9.70;;;16.00;99.90;;;;;;5056879;28;20527;-48
2022/07/02 04:24:07;;;;;;;10.70;9.10;;;16.10;99.90;;;;;;5056977;28;20523;-53
2022/07/02 04:26:34;;;;;;;12.17;9.80;;;16.10;99.90;;;;;;5056200;28;20499;-55
2022/07/02 04:29:01;;;;;;;11.80;10.10;;;16.10;99.90;;;;;;5057427;28;20483;-49
2022/07/02 04:31:29;;;;;;;12.60;10.17;;;16.10;99.90;;;;;;5056068;28;20460;-53
2022/07/02 04:33:56;;;;;;;13.23;10.00;;;16.20;99.90;;;;;;5057835;28;20951;-52
2022/07/02 04:36:23;;;;;;;10.67;9.47;;;16.20;99.90;;;;;;5057784;28;20499;-53
2022/07/02 04:38:50;;;;;;;12.00;10.03;;;16.20;99.90;;;;;;5056761;28;20460;-50
2022/07/02 04:41:17;;;;;;;11.00;9.73;;;16.30;99.90;;;;;;5055547;28;20479;-47
2022/07/02 04:43:43;;;;;;;12.37;8.63;;;16.30;99.90;;;;;;5056510;28;20460;-50
2022/07/02 04:46:10;;;;;;;13.33;9.70;;;16.30;99.90;;;;;;5056561;28;20475;-55
2022/07/02 04:48:38;;;;;;;14.43;10.77;;;16.30;99.90;;;;;;5056078;28;20476;-44
2022/07/02 04:51:05;;;;;;;10.13;8.50;;;16.40;99.90;;;;;;5057029;28;20514;-46
2022/07/02 04:53:32;;;;;;;12.30;8.60;;;16.40;99.90;;;;;;5056206;28;20431;-47
2022/07/02 04:56:00;;;;;;;10.50;8.30;;;16.50;99.90;;;;;;5056324;28;20409;-46
2022/07/02 04:58:27;;;;;;;11.83;8.83;;;16.50;99.90;;;;;;5056481;28;20459;-50
2022/07/02 05:00:54;;;;;;;11.93;9.67;;;16.60;99.90;;;;;;5055269;28;20463;-57
2022/07/02 05:03:21;;;;;;;9.70;7.97;;;16.60;99.90;;;;;;5050501;28;21007;-46
2022/07/02 05:05:49;;;;;;;10.50;9.30;;;16.70;99.90;;;;;;5056397;28;20436;-50
2022/07/02 05:08:16;;;;;;;10.17;8.10;;;16.70;99.90;;;;;;5054765;28;20468;-46
2022/07/02 05:10:45;;;;;;;11.33;8.07;;;16.80;99.90;;;;;;5056444;28;20502;-46
2022/07/02 05:13:12;;;;;;;10.63;9.53;;;16.90;99.90;;;;;;5055792;28;20468;-43
2022/07/02 05:15:39;;;;;;;10.80;8.17;;;16.90;99.90;;;;;;5056647;28;20543;-45
2022/07/02 05:18:06;;;;;;;10.57;8.13;;;17.00;99.90;;;;;;5056548;28;20484;-45
2022/07/02 05:20:33;;;;;;;8.90;7.90;;;17.00;99.90;;;;;;5056623;28;20524;-53
2022/07/02 05:23:02;;;;;;;11.53;9.10;;;17.00;99.90;;;;;;5056731;28;20479;-50
2022/07/02 05:25:30;;;;;;;8.47;7.03;;;17.10;99.90;;;;;;5056148;28;20472;-56
2022/07/02 05:27:57;;;;;;;9.50;8.50;;;17.10;99.90;;;;;;5056775;28;20487;-50
2022/07/02 05:30:24;;;;;;;8.67;7.13;;;17.20;99.90;;;;;;5051002;28;20588;-46
2022/07/02 05:32:51;;;;;;;10.87;8.70;;;17.20;99.90;;;;;;5051452;28;20456;-49
2022/07/02 05:35:18;;;;;;;11.47;9.57;;;17.20;99.90;;;;;;5043032;28;20464;-49
2022/07/02 05:37:47;;;;;;;9.50;8.50;;;17.20;99.90;;;;;;5049077;28;20676;-50
2022/07/02 05:40:15;;;;;;;9.70;8.50;;;17.30;99.90;;;;;;5042342;28;20456;-51
2022/07/02 05:42:42;;;;;;;8.70;7.60;;;17.40;99.90;;;;;;5036353;28;20429;-50
2022/07/02 05:45:10;;;;;;;11.50;7.60;;;17.40;99.90;;;;;;5035203;28;20417;-47
2022/07/02 05:47:36;;;;;;;9.27;8.17;;;17.50;99.90;;;;;;5037057;28;20457;-42
2022/07/02 05:50:04;;;;;;;12.27;8.17;;;17.60;99.90;;;;;;5035634;28;20536;-46
2022/07/02 05:52:31;;;;;;;11.93;9.00;;;17.70;99.90;;;;;;5035993;28;20460;-48
2022/07/02 05:54:57;;;;;;;10.40;7.30;;;17.80;99.90;;;;;;5036027;28;20441;-47
2022/07/02 05:57:26;;;;;;;9.90;6.53;;;17.90;99.90;;;;;;5038770;28;20469;-47
2022/07/02 05:59:53;;;;;;;8.97;6.90;;;18.00;99.90;;;;;;5059635;28;20444;-54
2022/07/02 06:02:20;;;;;;;9.50;7.60;;;18.00;99.90;;;;;;5057826;28;20483;-57
2022/07/02 06:04:47;;;;;;;10.70;8.30;;;18.10;99.90;;;;;;5057536;28;20448;-51
2022/07/02 06:09:58;;;;;;;8.13;6.47;;;18.30;99.90;;;;;;5055333;28;20431;-48
2022/07/02 06:12:26;;;;;;;11.93;6.53;;;18.30;99.90;;;;;;5064724;28;20466;-48
2022/07/02 06:14:53;;;;;;;10.30;6.73;;;18.40;99.90;;;;;;5074911;28;20468;-49
2022/07/02 06:17:21;;;;;;;8.30;6.63;;;18.50;99.90;;;;;;5063115;28;20436;-54
2022/07/02 06:19:48;;;;;;;10.00;7.67;;;18.60;99.90;;;;;;5056327;28;20447;-55
2022/07/02 06:22:15;;;;;;;9.50;8.50;;;18.70;99.90;;;;;;5055750;28;20424;-46
2022/07/02 06:24:42;;;;;;;10.53;7.10;;;18.70;99.90;;;;;;5058141;28;20451;-42
2022/07/02 06:27:09;;;;;;;8.10;7.10;;;18.80;99.90;;;;;;5054612;28;20803;-47
2022/07/02 06:29:37;;;;;;;10.00;7.63;;;18.90;99.90;;;;;;5055626;28;20452;-55
2022/07/02 06:32:05;;;;;;;11.13;6.73;;;19.00;99.90;;;;;;5055265;28;20580;-48
2022/07/02 06:34:32;;;;;;;6.93;6.13;;;19.00;99.90;;;;;;5055300;28;20455;-54
2022/07/02 06:36:59;;;;;;;8.50;6.00;;;19.10;99.90;;;;;;5054736;28;20503;-55
2022/07/02 06:39:27;;;;;;;10.00;9.00;;;19.20;99.90;;;;;;5054667;28;20747;-53
2022/07/02 06:44:39;;;;;;;7.53;6.60;;;19.40;99.90;;;;;;5055006;28;20415;-45
2022/07/02 06:47:06;;;;;;;9.10;7.00;;;19.50;99.90;;;;;;5054880;28;20440;-45
2022/07/02 06:49:33;;;;;;;6.60;6.00;;;19.50;99.90;;;;;;5054642;28;20499;-43
2022/07/02 06:52:00;;;;;;;9.10;7.10;;;19.60;99.90;;;;;;5072662;28;20470;-50
2022/07/02 06:54:27;;;;;;;9.30;6.47;;;19.80;99.90;;;;;;5074395;28;20451;-51
2022/07/02 06:56:54;;;;;;;12.30;6.27;;;20.00;99.90;;;;;;5074833;28;20475;-52
2022/07/02 06:59:21;;;;;;;9.23;6.80;;;20.10;99.90;;;;;;5059481;28;20500;-46
2022/07/02 07:01:51;;;;;;;8.83;6.73;;;20.20;99.90;;;;;;5053043;28;20436;-52
2022/07/02 07:04:17;;;;;;;6.27;5.60;;;20.40;99.90;;;;;;5054582;28;20434;-47
2022/07/02 07:06:44;;;;;;;7.27;6.53;;;20.60;99.90;;;;;;5055078;28;20528;-50
2022/07/02 07:09:11;;;;;;;6.40;5.80;;;20.70;99.90;;;;;;5054556;28;20456;-50
2022/07/02 07:11:38;;;;;;;6.40;5.30;;;20.90;99.90;;;;;;5054779;28;20527;-49
2022/07/02 07:14:05;;;;;;;9.83;5.50;;;21.20;99.90;;;;;;5054994;28;20471;-44
2022/07/02 07:16:32;;;;;;;7.70;5.60;;;21.40;99.90;;;;;;5055248;28;20464;-49
2022/07/02 07:19:00;;;;;;;5.47;4.67;;;21.60;99.90;;;;;;5055018;28;20500;-44
2022/07/02 07:21:27;;;;;;;5.63;4.80;;;21.90;99.90;;;;;;5054723;28;20518;-49
2022/07/02 07:23:53;;;;;;;7.33;6.43;;;22.80;99.90;;;;;;5054129;28;20444;-47
2022/07/02 07:26:20;;;;;;;8.13;5.90;;;24.30;99.90;;;;;;5052841;28;20452;-56
2022/07/02 07:28:47;;;;;;;6.33;4.90;;;26.10;99.90;;;;;;5051982;28;20535;-54
2022/07/02 07:31:16;;;;;;;5.20;4.70;;;28.00;99.90;;;;;;5053283;28;20491;-54
2022/07/02 07:33:42;;;;;;;4.30;3.30;;;29.80;98.30;;;;;;5053772;28;20454;-50
2022/07/02 07:36:11;;;;;;;18.40;4.67;;;31.10;86.10;;;;;;5053488;28;20440;-54
2022/07/02 07:38:38;;;;;;;9.03;3.53;;;31.90;76.80;;;;;;5055454;28;20471;-49
2022/07/02 07:41:05;;;;;;;8.23;3.50;;;33.00;70.20;;;;;;5055352;28;20499;-53
2022/07/02 07:43:32;;;;;;;3.13;2.50;;;34.10;64.10;;;;;;5055058;28;20555;-55
2022/07/02 07:45:59;;;;;;;10.40;3.90;;;34.70;57.10;;;;;;5055411;28;20883;-54
2022/07/02 07:48:26;;;;;;;5.93;3.80;;;35.30;55.30;;;;;;5054110;28;20468;-53
2022/07/02 07:50:53;;;;;;;3.83;3.50;;;35.70;53.10;;;;;;5071734;28;20513;-50
2022/07/02 07:53:21;;;;;;;3.53;3.23;;;36.10;51.30;;;;;;5060709;28;20507;-50
2022/07/02 07:55:48;;;;;;;5.10;3.40;;;36.70;49.00;;;;;;5053849;28;20512;-53
2022/07/02 07:58:15;;;;;;;5.20;3.23;;;36.90;47.70;;;;;;5052856;28;20479;-54
2022/07/02 08:00:42;;;;;;;3.70;3.33;;;37.10;47.10;;;;;;5051862;28;20526;-57
2022/07/02 08:03:09;;;;;;;2.93;2.63;;;37.00;46.40;;;;;;5050318;28;20451;-57
2022/07/02 08:05:36;;;;;;;3.50;2.80;;;36.60;43.90;;;;;;5049929;28;20432;-53
2022/07/02 08:08:03;;;;;;;4.10;2.43;;;36.30;43.80;;;;;;5049664;28;20750;-59
2022/07/02 08:10:32;;;;;;;2.60;2.40;;;36.30;42.80;;;;;;5061364;28;20444;-53
2022/07/02 08:12:58;;;;;;;6.10;3.80;;;36.40;43.30;;;;;;5068331;28;20466;-48
2022/07/02 08:15:26;;;;;;;3.63;2.63;;;36.10;43.50;;;;;;5068332;28;20758;-57
2022/07/02 08:17:54;;;;;;;2.50;2.30;;;36.20;41.90;;;;;;5070320;28;20443;-52
2022/07/02 08:20:21;;;;;;;5.10;4.40;;;36.00;42.60;;;;;;5071052;28;20470;-48
2022/07/02 08:22:50;;;;;;;2.53;2.33;;;36.20;43.10;;;;;;5070623;28;20487;-58
2022/07/02 08:25:18;;;;;;;2.50;2.10;;;36.10;42.40;;;;;;5069002;28;20469;-53
2022/07/02 08:27:46;;;;;;;3.30;2.20;;;35.70;43.00;;;;;;5069595;28;20445;-54
2022/07/02 08:30:14;;;;;;;2.57;1.97;;;35.40;43.00;;;;;;5065728;28;20915;-54
2022/07/02 08:32:41;;;;;;;3.50;2.50;;;35.40;43.00;;;;;;5050585;28;20559;-57
2022/07/02 08:35:09;;;;;;;2.33;2.13;;;35.40;42.80;;;;;;5050384;28;20511;-56
2022/07/02 08:37:36;;;;;;;3.20;2.37;;;35.70;41.80;;;;;;5049236;28;20456;-53
2022/07/02 08:40:03;;;;;;;5.83;2.27;;;35.20;41.80;;;;;;5047127;28;20459;-55
2022/07/02 08:42:32;;;;;;;8.70;2.10;;;33.80;43.40;;;;;;5045919;28;20877;-50
2022/07/02 08:45:03;;;;;;;2.43;2.20;;;32.30;46.30;;;;;;5047469;28;20482;-53
2022/07/02 08:47:31;;;;;;;3.00;2.70;;;30.90;47.90;;;;;;5048705;28;20468;-53
2022/07/02 08:49:59;;;;;;;4.97;2.37;;;29.70;50.00;;;;;;5049272;28;20471;-56
2022/07/02 08:52:27;;;;;;;2.27;2.07;;;28.50;52.20;;;;;;5050745;28;20482;-52
2022/07/02 08:54:55;;;;;;;5.20;2.70;;;27.60;54.90;;;;;;5050623;28;20943;-54
2022/07/02 08:57:23;;;;;;;4.60;2.10;;;26.90;55.20;;;;;;5051693;28;20516;-51
2022/07/02 08:59:51;;;;;;;2.60;1.97;;;26.20;55.30;;;;;;5053258;28;20483;-50
2022/07/02 09:02:19;;;;;;;2.07;1.87;;;26.10;56.70;;;;;;5053317;28;20468;-53
2022/07/02 09:04:48;;;;;;;2.43;2.23;;;26.50;56.60;;;;;;5053025;28;20464;-50
2022/07/02 09:07:16;;;;;;;1.70;1.60;;;27.30;55.50;;;;;;5052681;28;20511;-49
2022/07/02 09:09:43;;;;;;;3.93;1.93;;;28.40;52.30;;;;;;5051886;28;20511;-53
2022/07/02 09:12:12;;;;;;;1.93;1.53;;;29.50;50.90;;;;;;5049137;28;20515;-52
2022/07/02 09:14:39;;;;;;;1.87;1.40;;;30.40;48.60;;;;;;5035014;28;20462;-57
2022/07/02 09:17:07;;;;;;;2.73;1.30;;;31.10;47.40;;;;;;5050969;28;20495;-57
2022/07/02 09:19:36;;;;;;;2.00;1.80;;;31.90;47.20;;;;;;5050140;28;20452;-51
2022/07/02 09:22:03;;;;;;;2.07;1.63;;;32.60;45.60;;;;;;5048747;28;20532;-56
2022/07/02 09:24:31;;;;;;;3.10;2.00;;;32.50;44.70;;;;;;5048896;28;20496;-55
2022/07/02 09:27:02;;;;;;;4.63;1.93;;;32.90;44.60;;;;;;5049198;28;20479;-55
2022/07/02 09:29:29;;;;;;;5.50;3.73;;;33.40;43.90;;;;;;5048903;28;20444;-53
2022/07/02 09:31:55;;;;;;;5.60;1.77;;;33.60;43.20;;;;;;5049694;28;20487;-57
2022/07/02 09:34:27;;;;;;;2.90;2.20;;;33.90;42.10;;;;;;5049194;28;20881;-55
2022/07/02 09:36:55;;;;;;;4.33;2.53;;;34.10;40.80;;;;;;5049142;28;20491;-54
2022/07/02 09:39:29;;;;;;;3.17;2.40;;;34.30;41.70;;;;;;5050565;28;20528;-50
2022/07/02 09:41:57;;;;;;;2.10;1.67;;;34.70;41.80;;;;;;5049555;28;20474;-56
2022/07/02 09:44:25;;;;;;;3.00;1.57;;;35.10;40.10;;;;;;5047151;28;20968;-56
2022/07/02 09:46:52;;;;;;;2.40;1.97;;;34.30;40.50;;;;;;5046668;28;20470;-50
2022/07/02 09:49:19;;;;;;;2.90;1.93;;;33.60;41.30;;;;;;5046305;28;20444;-52
2022/07/02 09:51:48;;;;;;;2.40;1.90;;;33.40;42.00;;;;;;5045503;28;20472;-44
2022/07/02 09:54:21;;;;;;;2.07;1.60;;;33.50;42.30;;;;;;5046343;28;20496;-57
2022/07/02 09:56:52;;;;;;;3.57;1.60;;;33.60;41.00;;;;;;5047763;28;20470;-45
2022/07/02 09:59:19;;;;;;;2.00;1.73;;;33.80;41.60;;;;;;5048447;28;20459;-54
2022/07/02 10:01:46;;;;;;;2.10;1.90;;;34.10;40.10;;;;;;5048647;28;20520;-51
2022/07/02 10:04:13;;;;;;;2.03;1.83;;;33.80;40.90;;;;;;5045628;28;20486;-54
2022/07/02 10:06:41;;;;;;;5.67;2.00;;;33.50;41.00;;;;;;5047914;28;20448;-54
2022/07/02 10:09:09;;;;;;;2.40;2.00;;;33.60;41.20;;;;;;5044418;28;20583;-49
2022/07/02 10:11:38;;;;;;;2.13;1.93;;;33.90;41.00;;;;;;5047471;28;20571;-54
2022/07/02 10:14:05;;;;;;;4.53;2.07;;;34.10;42.00;;;;;;5058471;28;20495;-42
2022/07/02 10:16:32;;;;;;;1.80;1.70;;;34.20;40.40;;;;;;5052311;28;20460;-53
2022/07/02 10:19:00;;;;;;;5.17;1.90;;;33.90;40.20;;;;;;5052352;28;20471;-43
2022/07/02 10:21:29;;;;;;;2.60;2.03;;;33.30;41.10;;;;;;5051331;28;20475;-50
2022/07/02 10:23:57;;;;;;;2.93;1.80;;;32.70;41.70;;;;;;5050587;28;20459;-53
2022/07/02 10:26:24;;;;;;;3.57;1.80;;;31.90;43.30;;;;;;5052046;28;20495;-50
2022/07/02 10:28:53;;;;;;;3.87;2.10;;;31.90;43.10;;;;;;5051715;28;20460;-54
2022/07/02 10:31:20;;;;;;;2.77;1.83;;;31.90;42.50;;;;;;5051713;28;20548;-51
2022/07/02 10:33:53;;;;;;;7.03;2.27;;;32.10;42.40;;;;;;5052414;28;20475;-47
2022/07/02 10:36:22;;;;;;;3.13;1.83;;;32.40;42.40;;;;;;5051090;28;20492;-48
2022/07/02 10:38:57;;;;;;;2.40;2.03;;;32.60;42.20;;;;;;5050964;28;20462;-48
2022/07/02 10:41:26;;;;;;;2.33;2.13;;;32.70;41.90;;;;;;5051946;28;20543;-48
2022/07/02 10:43:57;;;;;;;2.10;1.50;;;32.60;41.10;;;;;;5038672;28;20476;-53
2022/07/02 10:46:25;;;;;;;1.70;1.50;;;32.50;40.10;;;;;;5050951;28;20529;-54
2022/07/02 10:48:54;;;;;;;3.43;2.00;;;32.30;41.80;;;;;;5051896;28;20437;-47
2022/07/02 10:51:23;;;;;;;2.47;1.80;;;32.10;42.30;;;;;;5051283;28;20467;-50
2022/07/02 10:53:50;;;;;;;2.63;1.83;;;31.50;43.10;;;;;;5049993;28;20463;-46
2022/07/02 10:56:18;;;;;;;1.70;1.60;;;31.20;43.50;;;;;;5051488;28;20444;-39
2022/07/02 10:58:45;;;;;;;8.63;3.00;;;30.80;43.60;;;;;;5050835;28;20471;-46
2022/07/02 11:01:15;;;;;;;2.60;1.83;;;30.30;43.10;;;;;;5050971;28;20469;-49
2022/07/02 11:03:53;;;;;;;3.00;1.80;;;30.20;43.80;;;;;;5051368;28;20431;-44
2022/07/02 11:06:24;;;;;;;1.63;1.27;;;29.90;43.50;;;;;;5053779;28;20499;-49
2022/07/02 11:08:53;;;;;;;5.03;1.97;;;29.60;43.10;;;;;;5056089;28;20452;-47
2022/07/02 11:11:29;;;;;;;4.73;2.93;;;29.50;44.10;;;;;;5056207;28;20471;-41
2022/07/02 11:14:00;;;;;;;2.30;1.80;;;29.60;44.70;;;;;;5056831;28;20462;-46
2022/07/02 11:16:31;;;;;;;6.70;2.47;;;29.90;44.50;;;;;;5056983;28;20486;-49
2022/07/02 11:19:01;;;;;;;3.03;1.70;;;29.80;43.90;;;;;;5056095;28;20519;-49
2022/07/02 11:21:29;;;;;;;3.50;2.10;;;29.70;43.60;;;;;;5055636;28;20437;-42
2022/07/02 11:23:56;;;;;;;1.93;1.73;;;29.50;43.20;;;;;;5055951;28;20552;-43
2022/07/02 11:26:26;;;;;;;2.40;1.80;;;29.00;44.20;;;;;;5055457;28;20471;-52
2022/07/02 11:28:54;;;;;;;6.53;2.20;;;28.50;45.20;;;;;;5055807;28;20543;-46
2022/07/02 11:31:23;;;;;;;2.30;1.90;;;28.00;46.70;;;;;;5056556;28;20516;-49
2022/07/02 11:33:53;;;;;;;2.70;1.77;;;27.90;46.70;;;;;;5056703;28;20487;-36
2022/07/02 11:36:21;;;;;;;2.83;1.63;;;27.90;47.10;;;;;;5056711;28;20863;-47
2022/07/02 11:38:49;;;;;;;2.20;2.00;;;27.90;45.70;;;;;;5056819;28;20480;-52
2022/07/02 11:41:21;;;;;;;2.43;1.50;;;27.90;44.90;;;;;;5056982;28;20452;-46
2022/07/02 11:43:49;;;;;;;2.67;1.30;;;28.10;45.60;;;;;;5056460;28;20495;-39
2022/07/02 11:46:19;;;;;;;3.93;1.60;;;28.30;45.00;;;;;;5056386;28;20456;-39
2022/07/02 11:48:49;;;;;;;2.20;1.47;;;28.30;44.90;;;;;;5056085;28;20968;-47
2022/07/02 11:51:19;;;;;;;2.10;1.80;;;28.50;44.70;;;;;;5056329;28;20542;-49
2022/07/02 11:53:56;;;;;;;3.33;2.80;;;28.50;44.80;;;;;;5061553;28;20591;-45
2022/07/02 11:56:23;;;;;;;2.20;1.63;;;28.50;45.10;;;;;;5056292;28;20434;-53
2022/07/02 11:58:50;;;;;;;1.70;1.60;;;28.20;45.50;;;;;;5055644;28;20459;-46
2022/07/02 12:01:23;;;;;;;2.13;1.93;;;27.90;45.00;;;;;;5055359;28;20436;-40
2022/07/02 12:03:50;;;;;;;3.20;1.80;;;27.70;46.20;;;;;;5055967;28;20468;-46
2022/07/02 12:06:19;;;;;;;2.50;1.80;;;27.60;46.30;;;;;;5055972;28;20500;-48
2022/07/02 12:08:46;;;;;;;2.70;1.73;;;27.60;46.70;;;;;;5055315;28;20436;-46
2022/07/02 12:11:14;;;;;;;1.67;1.57;;;27.80;46.40;;;;;;5056078;28;20508;-51
2022/07/02 12:13:41;;;;;;;2.50;1.50;;;27.90;46.20;;;;;;5055494;28;20490;-49
2022/07/02 12:16:11;;;;;;;6.13;2.10;;;27.80;46.70;;;;;;5055321;28;20475;-48
2022/07/02 12:18:40;;;;;;;2.53;1.63;;;27.80;46.90;;;;;;5054747;28;20458;-44
2022/07/02 12:21:12;;;;;;;2.50;2.10;;;27.90;46.40;;;;;;5056183;28;20444;-45
2022/07/02 12:23:45;;;;;;;2.60;1.63;;;28.10;46.50;;;;;;5039325;28;20464;-46
2022/07/02 12:26:23;;;;;;;2.97;1.57;;;28.10;45.90;;;;;;5055003;28;20439;-45
2022/07/02 12:31:46;;;;;;;1.60;1.50;;;27.90;46.50;;;;;;5053911;28;20471;-35
2022/07/02 12:34:13;;;;;;;2.07;1.70;;;27.80;46.10;;;;;;5055335;28;20468;-45
2022/07/02 12:36:54;;;;;;;1.97;1.87;;;27.70;46.80;;;;;;5054604;28;20447;-45
2022/07/02 12:39:23;;;;;;;4.10;1.93;;;27.40;47.00;;;;;;5054480;28;20428;-50
2022/07/02 12:41:50;;;;;;;5.17;2.10;;;27.20;47.80;;;;;;5055139;28;20495;-49
2022/07/02 12:44:19;;;;;;;2.80;1.70;;;27.10;48.20;;;;;;5055467;28;20467;-45
2022/07/02 12:46:48;;;;;;;2.37;2.17;;;27.00;47.40;;;;;;5055180;28;20528;-43
2022/07/02 12:49:20;;;;;;;2.73;1.83;;;27.10;49.30;;;;;;5054863;28;20448;-48
2022/07/02 12:52:01;;;;;;;3.40;2.00;;;27.40;48.70;;;;;;5055239;28;20436;-49
2022/07/02 12:54:37;;;;;;;2.47;2.07;;;27.70;47.40;;;;;;5055395;28;20431;-50
2022/07/02 12:57:28;;;;;;;2.20;1.67;;;27.90;47.50;;;;;;5055162;28;21049;-49
2022/07/02 12:59:54;;;;;;;3.20;2.03;;;28.10;46.90;;;;;;5043188;28;20464;-46